sensor_id;sensor_type;location;lat;lon;timestamp;P1;durP1;ratioP1;P2;durP2;ratioP2
32106;SDS011;18622;51.998;10.440;2023-02-28T03:46:27;5.37;;;1.90;;
32106;SDS011;18622;51.998;10.440;2023-02-28T03:48:58;3.62;;;1.60;;
32106;SDS011;18622;51.998;10.440;2023-02-28T03:51:30;4.77;;;1.87;;
32106;SDS011;18622;51.998;10.440;2023-02-28T03:54:03;4.35;;;1.50;;
32106;SDS011;18622;51.998;10.440;2023-02-28T03:56:31;5.12;;;1.80;;
32106;SDS011;18622;51.998;10.440;2023-02-28T03:59:13;5.00;;;2.00;;
32106;SDS011;18622;51.998;10.440;2023-02-28T04:04:09;3.55;;;1.62;;
32106;SDS011;18622;51.998;10.440;2023-02-28T04:06:38;7.00;;;1.80;;
32106;SDS011;18622;51.998;10.440;2023-02-28T04:09:06;3.20;;;2.02;;
32106;SDS011;18622;51.998;10.440;2023-02-28T04:14:09;2.60;;;1.83;;
32106;SDS011;18622;51.998;10.440;2023-02-28T04:16:39;3.70;;;2.30;;
32106;SDS011;18622;51.998;10.440;2023-02-28T04:21:36;4.10;;;1.60;;
32106;SDS011;18622;51.998;10.440;2023-02-28T04:24:09;3.58;;;1.72;;
32106;SDS011;18622;51.998;10.440;2023-02-28T04:26:43;3.63;;;1.83;;
32106;SDS011;18622;51.998;10.440;2023-02-28T04:29:13;7.62;;;2.33;;
32106;SDS011;18622;51.998;10.440;2023-02-28T04:31:42;5.92;;;2.10;;
32106;SDS011;18622;51.998;10.440;2023-02-28T04:34:10;14.27;;;3.00;;
32106;SDS011;18622;51.998;10.440;2023-02-28T04:36:38;3.20;;;1.80;;
32106;SDS011;18622;51.998;10.440;2023-02-28T04:41:35;3.60;;;2.08;;
32106;SDS011;18622;51.998;10.440;2023-02-28T04:44:02;7.67;;;1.70;;
32106;SDS011;18622;51.998;10.440;2023-02-28T04:46:30;2.07;;;1.37;;
32106;SDS011;18622;51.998;10.440;2023-02-28T04:48:58;3.83;;;2.00;;
32106;SDS011;18622;51.998;10.440;2023-02-28T04:51:26;4.00;;;2.30;;
32106;SDS011;18622;51.998;10.440;2023-02-28T04:53:54;3.57;;;2.20;;
32106;SDS011;18622;51.998;10.440;2023-02-28T04:56:21;5.70;;;1.43;;
32106;SDS011;18622;51.998;10.440;2023-02-28T04:58:49;6.07;;;1.83;;
32106;SDS011;18622;51.998;10.440;2023-02-28T05:01:21;3.40;;;1.65;;
32106;SDS011;18622;51.998;10.440;2023-02-28T05:03:49;4.00;;;1.70;;
32106;SDS011;18622;51.998;10.440;2023-02-28T05:06:18;4.20;;;1.90;;
32106;SDS011;18622;51.998;10.440;2023-02-28T05:08:46;3.50;;;2.10;;
32106;SDS011;18622;51.998;10.440;2023-02-28T05:11:25;6.03;;;2.00;;
32106;SDS011;18622;51.998;10.440;2023-02-28T05:13:45;4.50;;;1.98;;
32106;SDS011;18622;51.998;10.440;2023-02-28T05:16:14;3.12;;;1.75;;
32106;SDS011;18622;51.998;10.440;2023-02-28T05:18:42;4.53;;;1.80;;
32106;SDS011;18622;51.998;10.440;2023-02-28T05:24:00;4.73;;;2.20;;
32106;SDS011;18622;51.998;10.440;2023-02-28T05:26:30;4.37;;;1.67;;
32106;SDS011;18622;51.998;10.440;2023-02-28T05:28:59;4.25;;;1.75;;
32106;SDS011;18622;51.998;10.440;2023-02-28T05:31:27;5.30;;;2.40;;
32106;SDS011;18622;51.998;10.440;2023-02-28T05:33:55;5.17;;;1.87;;
32106;SDS011;18622;51.998;10.440;2023-02-28T05:36:23;4.20;;;1.70;;
32106;SDS011;18622;51.998;10.440;2023-02-28T05:38:51;2.53;;;1.90;;
32106;SDS011;18622;51.998;10.440;2023-02-28T05:41:19;6.00;;;1.87;;
32106;SDS011;18622;51.998;10.440;2023-02-28T05:43:47;5.57;;;2.00;;
32106;SDS011;18622;51.998;10.440;2023-02-28T05:46:15;4.07;;;2.10;;
32106;SDS011;18622;51.998;10.440;2023-02-28T05:48:45;5.60;;;2.03;;
32106;SDS011;18622;51.998;10.440;2023-02-28T05:51:13;2.42;;;1.70;;
32106;SDS011;18622;51.998;10.440;2023-02-28T05:53:41;4.90;;;2.20;;
32106;SDS011;18622;51.998;10.440;2023-02-28T05:56:09;7.60;;;1.80;;
32106;SDS011;18622;51.998;10.440;2023-02-28T05:58:37;6.37;;;2.23;;
32106;SDS011;18622;51.998;10.440;2023-02-28T06:01:21;4.83;;;2.10;;
32106;SDS011;18622;51.998;10.440;2023-02-28T06:03:51;3.33;;;1.60;;
32106;SDS011;18622;51.998;10.440;2023-02-28T06:06:18;6.60;;;2.17;;
32106;SDS011;18622;51.998;10.440;2023-02-28T06:08:46;4.70;;;2.33;;
32106;SDS011;18622;51.998;10.440;2023-02-28T06:11:14;8.87;;;2.90;;
32106;SDS011;18622;51.998;10.440;2023-02-28T06:13:42;6.00;;;2.03;;
32106;SDS011;18622;51.998;10.440;2023-02-28T06:16:10;5.00;;;2.20;;
32106;SDS011;18622;51.998;10.440;2023-02-28T06:18:38;5.42;;;2.30;;
32106;SDS011;18622;51.998;10.440;2023-02-28T06:21:06;7.03;;;2.67;;
32106;SDS011;18622;51.998;10.440;2023-02-28T06:23:34;6.05;;;2.08;;
32106;SDS011;18622;51.998;10.440;2023-02-28T06:26:02;4.50;;;1.77;;
32106;SDS011;18622;51.998;10.440;2023-02-28T06:28:30;5.97;;;1.60;;
32106;SDS011;18622;51.998;10.440;2023-02-28T15:49:49;3.93;;;2.50;;
32106;SDS011;18622;51.998;10.440;2023-02-28T15:52:21;2.77;;;2.10;;
32106;SDS011;18622;51.998;10.440;2023-02-28T15:54:49;4.22;;;2.87;;
32106;SDS011;18622;51.998;10.440;2023-02-28T15:57:23;5.45;;;2.90;;
32106;SDS011;18622;51.998;10.440;2023-02-28T15:59:52;6.00;;;3.40;;
32106;SDS011;18622;51.998;10.440;2023-02-28T16:02:32;4.53;;;3.10;;
32106;SDS011;18622;51.998;10.440;2023-02-28T16:05:12;5.80;;;2.92;;
32106;SDS011;18622;51.998;10.440;2023-02-28T16:07:39;12.03;;;6.13;;
32106;SDS011;18622;51.998;10.440;2023-02-28T16:10:08;4.55;;;2.65;;
32106;SDS011;18622;51.998;10.440;2023-02-28T16:12:40;5.23;;;3.10;;
32106;SDS011;18622;51.998;10.440;2023-02-28T16:15:14;5.58;;;3.50;;
32106;SDS011;18622;51.998;10.440;2023-02-28T16:17:48;9.73;;;5.10;;
32106;SDS011;18622;51.998;10.440;2023-02-28T16:20:20;8.47;;;4.57;;
32106;SDS011;18622;51.998;10.440;2023-02-28T16:22:50;9.77;;;5.20;;
32106;SDS011;18622;51.998;10.440;2023-02-28T16:25:19;11.70;;;6.43;;
32106;SDS011;18622;51.998;10.440;2023-02-28T16:27:49;11.10;;;5.53;;
32106;SDS011;18622;51.998;10.440;2023-02-28T16:30:24;7.93;;;4.10;;
32106;SDS011;18622;51.998;10.440;2023-02-28T16:35:21;7.58;;;3.95;;
32106;SDS011;18622;51.998;10.440;2023-02-28T16:37:52;5.50;;;3.83;;
32106;SDS011;18622;51.998;10.440;2023-02-28T16:40:24;10.15;;;4.42;;
32106;SDS011;18622;51.998;10.440;2023-02-28T16:42:55;8.23;;;4.20;;
32106;SDS011;18622;51.998;10.440;2023-02-28T16:45:25;7.75;;;3.67;;
32106;SDS011;18622;51.998;10.440;2023-02-28T16:47:55;6.83;;;3.50;;
32106;SDS011;18622;51.998;10.440;2023-02-28T16:50:27;8.13;;;4.10;;
32106;SDS011;18622;51.998;10.440;2023-02-28T16:52:55;5.78;;;3.27;;
32106;SDS011;18622;51.998;10.440;2023-02-28T16:55:24;7.90;;;3.90;;
32106;SDS011;18622;51.998;10.440;2023-02-28T16:57:53;9.25;;;5.55;;
32106;SDS011;18622;51.998;10.440;2023-02-28T17:00:23;10.25;;;5.25;;
32106;SDS011;18622;51.998;10.440;2023-02-28T17:02:51;13.88;;;6.33;;
32106;SDS011;18622;51.998;10.440;2023-02-28T17:05:19;19.77;;;7.47;;
32106;SDS011;18622;51.998;10.440;2023-02-28T17:07:48;14.13;;;7.25;;
32106;SDS011;18622;51.998;10.440;2023-02-28T17:10:28;22.50;;;7.00;;
32106;SDS011;18622;51.998;10.440;2023-02-28T17:12:50;13.43;;;6.57;;
32106;SDS011;18622;51.998;10.440;2023-02-28T17:15:19;12.00;;;6.57;;
32106;SDS011;18622;51.998;10.440;2023-02-28T17:17:47;14.40;;;7.10;;
32106;SDS011;18622;51.998;10.440;2023-02-28T17:20:21;15.30;;;6.70;;
32106;SDS011;18622;51.998;10.440;2023-02-28T17:22:50;18.13;;;6.57;;
32106;SDS011;18622;51.998;10.440;2023-02-28T17:25:18;15.15;;;4.95;;
32106;SDS011;18622;51.998;10.440;2023-02-28T17:27:46;8.58;;;5.22;;
32106;SDS011;18622;51.998;10.440;2023-02-28T17:30:15;10.43;;;3.95;;
32106;SDS011;18622;51.998;10.440;2023-02-28T17:32:45;8.55;;;4.45;;
32106;SDS011;18622;51.998;10.440;2023-02-28T17:35:13;6.57;;;4.07;;
32106;SDS011;18622;51.998;10.440;2023-02-28T17:37:41;9.00;;;3.83;;
32106;SDS011;18622;51.998;10.440;2023-02-28T17:40:15;14.37;;;4.57;;
32106;SDS011;18622;51.998;10.440;2023-02-28T17:42:43;7.77;;;4.30;;
32106;SDS011;18622;51.998;10.440;2023-02-28T17:45:12;9.60;;;4.37;;
32106;SDS011;18622;51.998;10.440;2023-02-28T17:47:40;10.53;;;4.60;;
32106;SDS011;18622;51.998;10.440;2023-02-28T17:50:12;9.23;;;4.62;;
32106;SDS011;18622;51.998;10.440;2023-02-28T17:52:43;9.53;;;5.80;;
32106;SDS011;18622;51.998;10.440;2023-02-28T17:55:11;9.63;;;6.83;;
32106;SDS011;18622;51.998;10.440;2023-02-28T17:57:39;15.83;;;4.67;;
32106;SDS011;18622;51.998;10.440;2023-02-28T18:00:08;9.50;;;4.37;;
32106;SDS011;18622;51.998;10.440;2023-02-28T18:02:37;14.95;;;4.58;;
32106;SDS011;18622;51.998;10.440;2023-02-28T18:05:06;8.27;;;4.90;;
32106;SDS011;18622;51.998;10.440;2023-02-28T18:07:34;9.78;;;5.62;;
32106;SDS011;18622;51.998;10.440;2023-02-28T18:10:04;14.15;;;7.47;;
32106;SDS011;18622;51.998;10.440;2023-02-28T18:12:33;12.25;;;7.28;;
32106;SDS011;18622;51.998;10.440;2023-02-28T18:15:01;12.23;;;6.27;;
32106;SDS011;18622;51.998;10.440;2023-02-28T18:17:29;10.13;;;5.30;;
32106;SDS011;18622;51.998;10.440;2023-02-28T18:19:57;10.87;;;5.43;;
32106;SDS011;18622;51.998;10.440;2023-02-28T18:22:25;21.03;;;9.70;;
32106;SDS011;18622;51.998;10.440;2023-02-28T18:24:53;11.93;;;5.83;;
32106;SDS011;18622;51.998;10.440;2023-02-28T18:27:21;14.03;;;5.07;;
32106;SDS011;18622;51.998;10.440;2023-02-28T18:29:48;15.07;;;10.43;;
32106;SDS011;18622;51.998;10.440;2023-02-28T18:32:17;21.02;;;11.43;;
32106;SDS011;18622;51.998;10.440;2023-02-28T18:34:45;12.77;;;7.37;;
32106;SDS011;18622;51.998;10.440;2023-02-28T18:37:12;15.43;;;7.33;;
32106;SDS011;18622;51.998;10.440;2023-02-28T18:39:42;12.45;;;5.55;;
32106;SDS011;18622;51.998;10.440;2023-02-28T18:42:10;8.17;;;4.37;;
32106;SDS011;18622;51.998;10.440;2023-02-28T18:44:38;19.63;;;7.53;;
32106;SDS011;18622;51.998;10.440;2023-02-28T18:47:06;12.53;;;5.77;;
32106;SDS011;18622;51.998;10.440;2023-02-28T18:49:34;9.15;;;5.03;;
32106;SDS011;18622;51.998;10.440;2023-02-28T18:52:02;8.18;;;5.20;;
32106;SDS011;18622;51.998;10.440;2023-02-28T18:54:30;10.33;;;4.73;;
32106;SDS011;18622;51.998;10.440;2023-02-28T18:56:58;9.77;;;4.90;;
32106;SDS011;18622;51.998;10.440;2023-02-28T18:59:26;9.80;;;6.00;;
32106;SDS011;18622;51.998;10.440;2023-02-28T19:01:54;8.47;;;5.30;;
32106;SDS011;18622;51.998;10.440;2023-02-28T19:04:23;10.85;;;6.03;;
32106;SDS011;18622;51.998;10.440;2023-02-28T19:06:51;7.83;;;5.47;;
32106;SDS011;18622;51.998;10.440;2023-02-28T19:09:19;9.30;;;5.83;;
32106;SDS011;18622;51.998;10.440;2023-02-28T19:11:47;11.47;;;5.87;;
32106;SDS011;18622;51.998;10.440;2023-02-28T19:14:14;14.27;;;7.37;;
32106;SDS011;18622;51.998;10.440;2023-02-28T19:16:43;19.73;;;9.47;;
32106;SDS011;18622;51.998;10.440;2023-02-28T19:19:11;25.48;;;13.13;;
32106;SDS011;18622;51.998;10.440;2023-02-28T19:21:39;23.50;;;12.43;;
32106;SDS011;18622;51.998;10.440;2023-02-28T19:24:07;21.23;;;8.97;;
32106;SDS011;18622;51.998;10.440;2023-02-28T19:26:35;13.90;;;7.63;;
32106;SDS011;18622;51.998;10.440;2023-02-28T19:29:03;20.57;;;7.83;;
32106;SDS011;18622;51.998;10.440;2023-02-28T19:31:31;22.37;;;9.73;;
32106;SDS011;18622;51.998;10.440;2023-02-28T19:33:59;14.27;;;7.73;;
32106;SDS011;18622;51.998;10.440;2023-02-28T19:36:27;17.97;;;8.10;;
32106;SDS011;18622;51.998;10.440;2023-02-28T19:38:55;12.40;;;7.37;;
32106;SDS011;18622;51.998;10.440;2023-02-28T19:41:23;9.27;;;5.50;;
32106;SDS011;18622;51.998;10.440;2023-02-28T19:43:52;9.25;;;5.12;;
32106;SDS011;18622;51.998;10.440;2023-02-28T19:46:20;8.37;;;4.70;;
32106;SDS011;18622;51.998;10.440;2023-02-28T19:48:47;10.43;;;5.47;;
32106;SDS011;18622;51.998;10.440;2023-02-28T19:51:16;8.90;;;4.55;;
32106;SDS011;18622;51.998;10.440;2023-02-28T19:53:44;10.87;;;4.20;;
32106;SDS011;18622;51.998;10.440;2023-02-28T19:56:12;13.30;;;4.37;;
32106;SDS011;18622;51.998;10.440;2023-02-28T19:58:40;8.70;;;4.83;;
32106;SDS011;18622;51.998;10.440;2023-02-28T20:01:16;13.40;;;5.37;;
32106;SDS011;18622;51.998;10.440;2023-02-28T20:03:42;5.00;;;3.67;;
32106;SDS011;18622;51.998;10.440;2023-02-28T20:06:11;8.88;;;3.72;;
32106;SDS011;18622;51.998;10.440;2023-02-28T20:08:39;6.65;;;3.37;;
32106;SDS011;18622;51.998;10.440;2023-02-28T20:11:09;7.63;;;4.20;;
32106;SDS011;18622;51.998;10.440;2023-02-28T20:13:39;7.50;;;4.30;;
32106;SDS011;18622;51.998;10.440;2023-02-28T20:16:07;7.07;;;4.40;;
32106;SDS011;18622;51.998;10.440;2023-02-28T20:18:37;7.47;;;4.03;;
32106;SDS011;18622;51.998;10.440;2023-02-28T20:21:08;8.50;;;4.17;;
32106;SDS011;18622;51.998;10.440;2023-02-28T20:23:37;8.10;;;4.23;;
32106;SDS011;18622;51.998;10.440;2023-02-28T20:26:05;8.50;;;3.92;;
32106;SDS011;18622;51.998;10.440;2023-02-28T20:28:33;8.23;;;4.70;;
32106;SDS011;18622;51.998;10.440;2023-02-28T20:31:01;7.03;;;3.80;;
32106;SDS011;18622;51.998;10.440;2023-02-28T20:33:30;7.97;;;4.03;;
32106;SDS011;18622;51.998;10.440;2023-02-28T20:35:58;8.63;;;4.47;;
32106;SDS011;18622;51.998;10.440;2023-02-28T20:38:27;6.85;;;4.20;;
32106;SDS011;18622;51.998;10.440;2023-02-28T20:41:00;8.83;;;4.13;;
32106;SDS011;18622;51.998;10.440;2023-02-28T20:43:25;7.17;;;4.35;;
32106;SDS011;18622;51.998;10.440;2023-02-28T20:45:54;9.93;;;4.37;;
32106;SDS011;18622;51.998;10.440;2023-02-28T20:48:23;10.35;;;5.10;;
32106;SDS011;18622;51.998;10.440;2023-02-28T20:50:52;13.07;;;5.37;;
32106;SDS011;18622;51.998;10.440;2023-02-28T20:53:20;10.13;;;4.70;;
32106;SDS011;18622;51.998;10.440;2023-02-28T20:55:52;7.33;;;4.60;;
32106;SDS011;18622;51.998;10.440;2023-02-28T20:58:25;11.23;;;5.07;;
32106;SDS011;18622;51.998;10.440;2023-02-28T21:00:58;7.45;;;4.10;;
32106;SDS011;18622;51.998;10.440;2023-02-28T21:03:27;9.93;;;6.00;;
32106;SDS011;18622;51.998;10.440;2023-02-28T21:05:59;12.20;;;5.57;;
32106;SDS011;18622;51.998;10.440;2023-02-28T21:08:27;8.50;;;4.85;;
32106;SDS011;18622;51.998;10.440;2023-02-28T21:10:55;8.90;;;4.80;;
32106;SDS011;18622;51.998;10.440;2023-02-28T21:13:23;11.63;;;4.90;;
32106;SDS011;18622;51.998;10.440;2023-02-28T21:15:52;9.13;;;5.10;;
32106;SDS011;18622;51.998;10.440;2023-02-28T21:18:19;6.47;;;4.90;;
32106;SDS011;18622;51.998;10.440;2023-02-28T21:20:47;9.13;;;4.33;;
32106;SDS011;18622;51.998;10.440;2023-02-28T21:23:15;12.20;;;5.10;;
32106;SDS011;18622;51.998;10.440;2023-02-28T21:25:43;9.33;;;4.67;;
32106;SDS011;18622;51.998;10.440;2023-02-28T21:28:11;9.50;;;5.00;;
32106;SDS011;18622;51.998;10.440;2023-02-28T21:30:38;14.67;;;5.90;;
32106;SDS011;18622;51.998;10.440;2023-02-28T21:33:06;14.57;;;6.00;;
32106;SDS011;18622;51.998;10.440;2023-02-28T21:35:34;15.20;;;7.27;;
32106;SDS011;18622;51.998;10.440;2023-02-28T21:38:02;11.37;;;6.07;;
32106;SDS011;18622;51.998;10.440;2023-02-28T21:40:30;8.47;;;5.23;;
32106;SDS011;18622;51.998;10.440;2023-02-28T21:42:58;12.95;;;5.00;;
